CYRJ

Roberval Airport

ICAO Code CYRJ
IATA Code YRJ
Name Roberval Airport
Location Roberval, Quebec, CA
Elevation 586 Feet / 178.6 Meters
Latitude 48.52000000
Longitude -72.26583333
METAR CYRJ 080600Z VRB02KT 25SM FEW060 M00/M03 A2996 RMK SC1 SC TR SLP155
Extra information Display Charts and CFS
Display NOTAMS
Runway Length Width Surface Elevation
16 5000 ft 150 ft ASP 586 ft
34 5000 ft 150 ft ASP 560 ft